createdAt,value
2024-01-09T00:00:17.230Z,10.000000
2024-01-09T00:05:19.380Z,14.000000
2024-01-09T00:10:21.005Z,16.800000
2024-01-09T00:15:23.122Z,21.000000
2024-01-09T00:20:25.166Z,20.000000
2024-01-09T00:25:26.964Z,18.000000
2024-01-09T00:30:28.902Z,15.333333
2024-01-09T00:35:30.935Z,10.000000
2024-01-09T00:40:32.919Z,9.333333
2024-01-09T00:45:37.015Z,8.000000
2024-01-09T00:50:16.712Z,7.666667
2024-01-09T00:55:18.680Z,7.000000
2024-01-09T01:00:20.738Z,9.400000
2024-01-09T01:05:23.195Z,13.000000
2024-01-09T01:10:24.491Z,13.000000
2024-01-09T01:15:26.758Z,13.000000
2024-01-09T01:20:29.021Z,15.000000
2024-01-09T01:25:31.058Z,19.000000
2024-01-09T01:30:33.037Z,15.666667
2024-01-09T01:35:35.171Z,9.000000
2024-01-09T01:40:16.691Z,12.000000
2024-01-09T01:45:18.748Z,18.000000
2024-01-09T01:50:21.782Z,23.600000
2024-01-09T01:55:23.807Z,32.000000
2024-01-09T02:00:25.700Z,27.000000
2024-01-09T02:05:27.834Z,17.000000
2024-01-09T02:10:29.584Z,15.000000
2024-01-09T02:15:31.559Z,11.000000
2024-01-09T02:20:33.733Z,11.333333
2024-01-09T02:25:35.588Z,12.000000
2024-01-09T02:30:17.429Z,13.000000
2024-01-09T02:35:19.123Z,15.000000
2024-01-09T02:40:21.107Z,15.000000
2024-01-09T02:45:23.078Z,15.000000
2024-01-09T02:50:25.040Z,16.333333
2024-01-09T02:55:26.936Z,19.000000
2024-01-09T03:00:28.666Z,17.333333
2024-01-09T03:05:33.877Z,14.000000
2024-01-09T03:10:33.702Z,14.333333
2024-01-09T03:15:35.662Z,15.000000
2024-01-09T03:20:17.315Z,14.000000
2024-01-09T03:25:19.404Z,12.000000
2024-01-09T03:30:21.179Z,21.600000
2024-01-09T03:35:23.205Z,36.000000
2024-01-09T03:40:25.179Z,29.666667
2024-01-09T03:45:27.124Z,17.000000
2024-01-09T03:50:29.852Z,17.666667
2024-01-09T03:55:32.528Z,19.000000
2024-01-09T04:00:35.286Z,18.333333
2024-01-09T04:05:17.447Z,17.000000
2024-01-09T04:10:19.428Z,17.666667
2024-01-09T04:15:21.027Z,19.000000
2024-01-09T04:20:23.349Z,19.357143
2024-01-09T04:25:25.126Z,20.000000
2024-01-09T04:30:27.037Z,22.666667
2024-01-09T04:35:28.909Z,28.000000
2024-01-09T04:40:30.906Z,27.333333
2024-01-09T04:45:33.181Z,26.000000
2024-01-09T04:50:35.341Z,22.333333
2024-01-09T04:55:17.432Z,15.000000
2024-01-09T05:00:19.374Z,16.000000
2024-01-09T05:05:22.069Z,18.000000
2024-01-09T05:10:23.922Z,18.357143
2024-01-09T05:15:25.891Z,19.000000
2024-01-09T05:20:27.896Z,18.000000
2024-01-09T05:25:29.785Z,16.000000
2024-01-09T05:30:31.869Z,17.000000
2024-01-09T05:35:33.962Z,19.000000
2024-01-09T05:40:35.867Z,18.000000
2024-01-09T05:45:17.608Z,16.000000
2024-01-09T05:50:19.618Z,16.000000
2024-01-09T05:55:21.565Z,16.000000
2024-01-09T06:00:23.496Z,15.642857
2024-01-09T06:05:26.680Z,15.000000
2024-01-09T06:10:29.308Z,14.333333
2024-01-09T06:15:32.451Z,13.000000
2024-01-09T06:20:35.497Z,14.333333
2024-01-09T06:25:18.251Z,17.000000
2024-01-09T06:30:21.020Z,13.800000
2024-01-09T06:35:23.688Z,9.000000
2024-01-09T06:40:26.256Z,10.666667
2024-01-09T06:45:28.457Z,14.000000
2024-01-09T06:50:37.314Z,13.666667
2024-01-09T06:55:32.548Z,13.000000
2024-01-09T07:00:36.110Z,13.333333
2024-01-09T07:05:18.252Z,14.000000
2024-01-09T07:10:19.739Z,12.666667
2024-01-09T07:15:22.362Z,10.000000
2024-01-09T07:20:24.222Z,10.000000
2024-01-09T07:25:26.211Z,10.000000
2024-01-09T07:30:28.046Z,12.000000
2024-01-09T07:35:30.136Z,16.000000
2024-01-09T07:40:32.398Z,17.000000
2024-01-09T07:45:34.230Z,19.000000
2024-01-09T07:50:16.433Z,16.666667
2024-01-09T07:55:18.539Z,12.000000
2024-01-09T08:00:21.267Z,15.200000
2024-01-09T08:05:24.191Z,20.000000
2024-01-09T08:10:26.639Z,17.666667
2024-01-09T08:15:29.902Z,13.000000
2024-01-09T08:20:32.635Z,12.333333
2024-01-09T08:25:35.539Z,11.000000
2024-01-09T08:30:18.208Z,12.000000
2024-01-09T08:35:20.065Z,14.000000
2024-01-09T08:40:22.078Z,14.400000
2024-01-09T08:45:24.001Z,15.000000
2024-01-09T08:50:26.032Z,14.333333
2024-01-09T08:55:28.238Z,13.000000
2024-01-09T09:00:30.175Z,13.000000
2024-01-09T09:05:33.633Z,13.000000
2024-01-09T09:10:34.083Z,12.666667
2024-01-09T09:15:15.907Z,12.000000
2024-01-09T09:20:17.850Z,11.666667
2024-01-09T09:25:19.899Z,11.000000
2024-01-09T09:30:21.948Z,11.400000
2024-01-09T09:35:23.872Z,12.000000
2024-01-09T09:40:25.991Z,12.000000
2024-01-09T09:45:27.821Z,12.000000
2024-01-09T09:50:29.968Z,12.000000
2024-01-09T09:55:31.956Z,12.000000
2024-01-09T10:00:33.939Z,12.666667
2024-01-09T10:05:35.895Z,14.000000
2024-01-09T10:10:17.593Z,13.333333
2024-01-09T10:15:19.540Z,12.000000
2024-01-09T10:20:22.823Z,12.800000
2024-01-09T10:25:23.464Z,14.000000
2024-01-09T10:30:25.311Z,12.333333
2024-01-09T10:35:27.191Z,9.000000
2024-01-09T10:40:29.233Z,9.666667
2024-01-09T10:45:31.252Z,11.000000
2024-01-09T10:50:33.141Z,10.666667
2024-01-09T10:55:35.050Z,10.000000
2024-01-09T11:00:17.170Z,10.333333
2024-01-09T11:05:19.227Z,11.000000
2024-01-09T11:10:20.919Z,10.666667
2024-01-09T11:15:22.426Z,10.000000
2024-01-09T11:20:24.316Z,10.333333
2024-01-09T11:25:26.216Z,11.000000
2024-01-09T11:30:28.284Z,12.666667
2024-01-09T11:35:30.218Z,16.000000
2024-01-09T11:40:32.225Z,15.000000
2024-01-09T11:45:33.963Z,13.000000
2024-01-09T11:50:36.073Z,14.333333
2024-01-09T11:55:17.826Z,17.000000
2024-01-09T12:00:19.800Z,16.666667
2024-01-09T12:05:21.658Z,16.000000
2024-01-09T12:10:30.764Z,17.428571
2024-01-09T12:15:25.274Z,20.000000
2024-01-09T12:20:27.474Z,20.666667
2024-01-09T12:25:29.276Z,22.000000
2024-01-09T12:30:31.108Z,21.000000
2024-01-09T12:35:33.075Z,19.000000
2024-01-09T12:40:35.095Z,19.000000
2024-01-09T12:45:16.867Z,19.000000
2024-01-09T12:50:18.814Z,17.666667
2024-01-09T12:55:20.868Z,15.000000
2024-01-09T13:00:22.817Z,14.642857
2024-01-09T13:05:25.250Z,14.000000
2024-01-09T13:10:27.175Z,14.333333
2024-01-09T13:15:29.385Z,15.000000
2024-01-09T13:20:31.929Z,14.333333
2024-01-09T13:25:33.703Z,13.000000
2024-01-09T13:30:48.711Z,13.333333
2024-01-09T13:35:17.839Z,14.000000
2024-01-09T13:40:20.877Z,13.333333
2024-01-09T13:45:24.008Z,12.000000
2024-01-09T13:51:47.588Z,14.000000
2024-01-09T13:51:51.653Z,14.000000
2024-01-09T13:55:29.193Z,18.000000
2024-01-09T14:00:31.914Z,16.333333
2024-01-09T14:05:35.350Z,13.000000
2024-01-09T14:10:17.408Z,13.000000
2024-01-09T14:15:19.513Z,13.000000
2024-01-09T14:20:21.562Z,11.800000
2024-01-09T14:25:24.700Z,10.000000
2024-01-09T14:30:27.397Z,11.333333
2024-01-09T14:35:29.749Z,14.000000
2024-01-09T14:40:31.924Z,13.333333
2024-01-09T14:45:33.814Z,12.000000
2024-01-09T14:50:35.756Z,12.333333
2024-01-09T14:55:17.722Z,13.000000
2024-01-09T15:00:19.585Z,13.333333
2024-01-09T15:05:21.936Z,14.000000
2024-01-09T15:10:23.529Z,12.928571
2024-01-09T15:15:25.656Z,11.000000
2024-01-09T15:20:27.635Z,10.000000
2024-01-09T15:25:29.366Z,8.000000
2024-01-09T15:30:31.424Z,8.333333
2024-01-09T15:35:33.392Z,9.000000
2024-01-09T15:40:35.263Z,9.333333
2024-01-09T15:45:16.903Z,10.000000
2024-01-09T15:50:18.934Z,9.666667
2024-01-09T15:55:20.781Z,9.000000
2024-01-09T16:00:22.734Z,9.357143
2024-01-09T16:05:24.663Z,10.000000
2024-01-09T16:10:26.433Z,10.000000
2024-01-09T16:15:28.794Z,10.000000
2024-01-09T16:20:31.228Z,10.000000
2024-01-09T16:25:33.281Z,10.000000
2024-01-09T16:30:35.079Z,9.000000
2024-01-09T16:35:16.847Z,7.000000
2024-01-09T16:40:18.708Z,8.000000
2024-01-09T16:45:20.381Z,10.000000
2024-01-09T16:50:22.637Z,10.000000
2024-01-09T16:55:24.997Z,10.000000
2024-01-09T17:00:26.752Z,9.666667
2024-01-09T17:05:28.711Z,9.000000
2024-01-09T17:10:30.622Z,9.333333
2024-01-09T17:15:32.628Z,10.000000
2024-01-09T17:20:34.572Z,9.333333
2024-01-09T17:25:16.392Z,8.000000
2024-01-09T17:30:18.287Z,8.666667
2024-01-09T17:35:20.338Z,10.000000
2024-01-09T17:40:22.075Z,8.571429
2024-01-09T17:45:24.004Z,6.000000
2024-01-09T17:50:25.897Z,8.666667
2024-01-09T17:55:28.253Z,14.000000
2024-01-09T18:00:32.182Z,12.333333
2024-01-09T18:05:32.275Z,9.000000
2024-01-09T18:10:34.085Z,8.000000
2024-01-09T18:15:35.896Z,6.000000
2024-01-09T18:20:17.854Z,6.666667
2024-01-09T18:25:19.819Z,8.000000
2024-01-09T18:30:21.737Z,8.400000
2024-01-09T18:35:23.522Z,9.000000
2024-01-09T18:40:25.554Z,9.000000
2024-01-09T18:45:27.267Z,9.000000
2024-01-09T18:50:29.196Z,9.000000
2024-01-09T18:55:31.338Z,9.000000
2024-01-09T19:00:33.279Z,8.666667
2024-01-09T19:05:35.317Z,8.000000
2024-01-09T19:10:16.868Z,8.000000
2024-01-09T19:15:19.468Z,8.000000
2024-01-09T19:20:21.503Z,8.800000
2024-01-09T19:25:23.835Z,10.000000
2024-01-09T19:30:27.338Z,9.666667
2024-01-09T19:35:28.703Z,9.000000
2024-01-09T19:40:31.712Z,8.666667
2024-01-09T19:45:34.885Z,8.000000
2024-01-09T19:50:17.590Z,8.333333
2024-01-09T19:55:20.435Z,9.000000
2024-01-09T20:00:22.998Z,9.000000
2024-01-09T20:05:24.860Z,9.000000
2024-01-09T20:10:26.973Z,8.666667
2024-01-09T20:15:28.977Z,8.000000
2024-01-09T20:20:31.721Z,7.666667
2024-01-09T20:25:35.024Z,7.000000
2024-01-09T20:30:17.280Z,7.333333
2024-01-09T20:35:19.836Z,8.000000
2024-01-09T20:40:22.899Z,8.714286
2024-01-09T20:45:26.683Z,10.000000
2024-01-09T20:50:27.805Z,9.666667
2024-01-09T20:55:30.508Z,9.000000
2024-01-09T21:00:32.474Z,9.666667
2024-01-09T21:05:35.232Z,11.000000
2024-01-09T21:10:18.103Z,10.333333
2024-01-09T21:15:23.540Z,9.000000
2024-01-09T21:20:23.455Z,9.000000
2024-01-09T21:25:25.603Z,9.000000
2024-01-09T21:30:28.740Z,8.666667
2024-01-09T21:35:31.071Z,8.000000
2024-01-09T21:40:38.025Z,8.000000
2024-01-09T21:45:16.053Z,8.000000
2024-01-09T21:50:18.496Z,7.666667
2024-01-09T21:55:20.738Z,7.000000
2024-01-09T22:00:22.908Z,7.000000
2024-01-09T22:05:24.804Z,7.000000
2024-01-09T22:10:26.779Z,7.666667
2024-01-09T22:15:28.819Z,9.000000
2024-01-09T22:20:31.454Z,9.000000
2024-01-09T22:25:35.076Z,9.000000
2024-01-09T22:30:17.322Z,8.333333
2024-01-09T22:35:19.808Z,7.000000
2024-01-09T22:40:22.175Z,7.357143
2024-01-09T22:45:24.398Z,8.000000
2024-01-09T22:50:26.361Z,8.333333
2024-01-09T22:55:28.610Z,9.000000
2024-01-09T23:00:30.491Z,10.000000
2024-01-09T23:05:32.646Z,12.000000
2024-01-09T23:10:34.747Z,10.666667
2024-01-09T23:15:16.685Z,8.000000
2024-01-09T23:20:18.882Z,8.000000
2024-01-09T23:25:21.142Z,8.000000
2024-01-09T23:30:23.369Z,8.357143
2024-01-09T23:35:25.841Z,9.000000
2024-01-09T23:40:27.354Z,8.333333
2024-01-09T23:45:29.270Z,7.000000
2024-01-09T23:50:31.366Z,7.666667
2024-01-09T23:55:33.459Z,9.000000
